Time;durP1;ratioP1;P1;durP2;ratioP2;P2;SDS_P1;SDS_P2;PMS_P1;PMS_P2;Temp;Humidity;BMP_temperature;BMP_pressure;BME280_temperature;BME280_humidity;BME280_pressure;Samples;Min_cycle;Max_cycle;Signal;HPM_P1;HPM_P2
2021/06/28 00:01:31;;;;;;;11.18;5.85;;;;;;;25.72;41.16;100963.03;4392887;32;20105;-73
2021/06/28 00:04:38;;;;;;;13.23;6.50;;;;;;;25.65;41.26;100962.84;4405354;32;20084;-77
2021/06/28 00:07:17;;;;;;;14.48;6.35;;;;;;;25.98;40.65;100963.31;4397199;32;20135;-74
2021/06/28 00:09:43;;;;;;;17.10;6.93;;;;;;;25.54;41.43;100952.19;4407952;32;20085;-75
2021/06/28 00:12:09;;;;;;;16.05;7.68;;;;;;;25.38;41.93;100953.91;4403810;32;20159;-75
2021/06/28 00:14:34;;;;;;;11.15;7.03;;;;;;;25.30;42.06;100957.88;4406217;32;20042;-76
2021/06/28 00:17:00;;;;;;;11.18;6.57;;;;;;;25.34;42.05;100955.50;4404929;32;20105;-77
2021/06/28 00:19:26;;;;;;;11.77;6.68;;;;;;;25.54;41.65;100946.44;4402500;32;20026;-75
2021/06/28 00:21:52;;;;;;;14.05;6.87;;;;;;;25.46;41.74;100941.81;4403907;32;20468;-73
2021/06/28 00:24:18;;;;;;;10.98;6.50;;;;;;;25.36;41.81;100938.47;4402625;32;20097;-77
2021/06/28 00:26:43;;;;;;;14.20;6.57;;;;;;;25.49;41.75;100940.72;4402137;32;20034;-74
2021/06/28 00:29:09;;;;;;;14.48;7.28;;;;;;;25.53;41.66;100944.88;4407553;32;20121;-72
2021/06/28 00:31:38;;;;;;;10.93;6.57;;;;;;;25.34;42.10;100932.44;4405286;32;20073;-73
2021/06/28 00:34:04;;;;;;;15.02;7.25;;;;;;;25.23;42.33;100929.66;4404184;32;20058;-76
2021/06/28 00:36:30;;;;;;;14.35;6.97;;;;;;;25.46;41.82;100927.41;4406005;32;20046;-73
2021/06/28 00:38:56;;;;;;;13.05;7.32;;;;;;;25.26;42.25;100922.81;4406368;32;20078;-74
2021/06/28 00:41:21;;;;;;;13.05;6.78;;;;;;;25.37;42.18;100914.87;4407939;32;20128;-73
2021/06/28 00:43:47;;;;;;;11.82;6.05;;;;;;;24.91;43.08;100920.72;4406231;32;20049;-77
2021/06/28 00:46:13;;;;;;;14.87;6.78;;;;;;;24.69;43.26;100917.19;4404968;32;20168;-73
2021/06/28 00:48:38;;;;;;;13.38;6.82;;;;;;;24.84;43.18;100917.63;4403101;32;20035;-76
2021/06/28 00:51:04;;;;;;;12.60;6.00;;;;;;;24.72;43.55;100921.87;4405643;32;20450;-75
2021/06/28 00:53:31;;;;;;;12.27;6.20;;;;;;;24.89;43.11;100925.47;4404680;32;20046;-75
2021/06/28 00:56:09;;;;;;;12.75;6.00;;;;;;;24.99;43.07;100926.69;4403511;32;20581;-74
2021/06/28 00:58:39;;;;;;;9.85;5.78;;;;;;;24.93;43.15;100926.72;4407957;32;20356;-74
2021/06/28 01:01:06;;;;;;;15.43;6.45;;;;;;;25.48;42.35;100924.75;4401463;32;20066;-75
2021/06/28 01:03:31;;;;;;;11.98;6.10;;;;;;;24.95;43.00;100918.31;4406174;32;20077;-75
2021/06/28 01:05:59;;;;;;;11.40;6.85;;;;;;;25.13;42.44;100931.31;4405492;32;20424;-74
2021/06/28 01:08:24;;;;;;;13.93;7.05;;;;;;;25.09;42.82;100933.69;4404346;32;20057;-73
2021/06/28 01:10:50;;;;;;;17.15;7.43;;;;;;;24.73;43.27;100926.34;4402954;32;20482;-75
2021/06/28 01:13:16;;;;;;;14.13;7.62;;;;;;;25.01;42.74;100924.06;4404292;32;20422;-74
2021/06/28 01:15:42;;;;;;;15.65;7.65;;;;;;;25.03;42.75;100919.31;4388561;32;20085;-73
2021/06/28 01:18:08;;;;;;;11.77;6.95;;;;;;;25.10;42.73;100907.22;4407350;32;20769;-73
2021/06/28 01:20:36;;;;;;;11.75;6.62;;;;;;;25.13;42.62;100905.38;4402657;32;20049;-74
2021/06/28 01:25:59;;;;;;;18.15;7.30;;;;;;;25.95;41.20;100915.34;3981603;32;15082539;-74
2021/06/28 01:28:25;;;;;;;12.40;7.57;;;;;;;25.95;41.20;100915.34;4441158;32;20063;-75
2021/06/28 01:30:52;;;;;;;15.60;7.65;;;;;;;25.39;41.90;100908.59;4437742;32;20113;-74
2021/06/28 01:33:18;;;;;;;13.02;7.47;;;;;;;25.46;41.88;100905.09;4437994;32;20100;-75
2021/06/28 01:35:45;;;;;;;15.15;7.85;;;;;;;25.20;42.31;100913.44;4441737;32;20052;-74
2021/06/28 01:38:10;;;;;;;13.60;8.10;;;;;;;25.19;42.32;100904.00;4439914;32;20114;-75
2021/06/28 01:40:37;;;;;;;14.87;8.23;;;;;;;25.27;42.07;100901.31;4435287;32;20410;-75
2021/06/28 01:43:04;;;;;;;12.82;7.90;;;;;;;25.37;42.02;100914.09;4440748;32;20161;-75
2021/06/28 01:45:30;;;;;;;13.62;8.30;;;;;;;25.02;42.51;100900.50;4440850;32;20049;-75
2021/06/28 01:47:58;;;;;;;14.23;8.68;;;;;;;25.06;42.27;100892.34;4438453;32;20377;-73
2021/06/28 01:50:26;;;;;;;14.60;7.50;;;;;;;25.26;41.86;100894.00;4435510;32;20017;-73
2021/06/28 01:52:52;;;;;;;14.40;8.18;;;;;;;25.38;41.77;100893.38;4441228;32;20089;-72
2021/06/28 01:55:20;;;;;;;11.63;7.40;;;;;;;25.14;41.83;100896.22;4438451;32;20105;-75
2021/06/28 01:57:48;;;;;;;13.88;7.78;;;;;;;25.38;41.75;100895.50;4439811;32;20021;-74
2021/06/28 02:00:17;;;;;;;11.20;7.15;;;;;;;25.12;42.04;100880.75;4435389;32;20072;-75
2021/06/28 02:03:05;;;;;;;11.65;7.03;;;;;;;25.34;41.55;100874.84;4423313;32;20038;-75
2021/06/28 02:05:33;;;;;;;13.68;7.68;;;;;;;25.48;41.19;100867.09;4423211;32;20046;-75
2021/06/28 02:08:01;;;;;;;11.93;7.37;;;;;;;25.10;41.78;100869.78;4423696;32;20065;-74
2021/06/28 02:10:27;;;;;;;16.83;7.53;;;;;;;25.06;41.88;100866.41;4419893;32;20124;-74
2021/06/28 02:12:54;;;;;;;10.77;7.03;;;;;;;24.93;42.21;100857.63;4424429;32;20038;-74
2021/06/28 02:15:22;;;;;;;16.85;7.05;;;;;;;24.82;42.07;100857.72;4420941;32;20470;-74
2021/06/28 02:17:48;;;;;;;14.05;6.82;;;;;;;24.95;42.05;100854.97;4424424;32;20144;-74
2021/06/28 02:20:15;;;;;;;11.00;6.10;;;;;;;24.84;42.19;100845.66;4422854;32;20406;-74
2021/06/28 02:22:41;;;;;;;16.48;7.18;;;;;;;24.74;41.94;100842.34;4421222;32;20050;-75
2021/06/28 02:25:09;;;;;;;10.73;6.32;;;;;;;24.85;42.18;100850.87;4421641;32;20112;-75
2021/06/28 02:27:36;;;;;;;14.02;6.97;;;;;;;24.91;41.98;100842.97;4423747;32;20463;-75
2021/06/28 02:30:05;;;;;;;18.67;8.02;;;;;;;24.86;41.94;100835.19;4420111;32;20362;-73
2021/06/28 02:32:31;;;;;;;10.40;6.28;;;;;;;24.71;42.37;100820.37;4425011;32;20045;-73
2021/06/28 02:34:56;;;;;;;11.50;7.15;;;;;;;24.59;42.08;100824.63;4424165;32;20433;-74
2021/06/28 02:37:22;;;;;;;11.55;6.03;;;;;;;24.84;41.87;100822.63;4413383;32;20105;-74
2021/06/28 02:39:48;;;;;;;13.32;6.07;;;;;;;24.88;41.75;100826.03;4410514;32;20104;-74
2021/06/28 02:42:14;;;;;;;8.80;4.85;;;;;;;24.73;41.80;100820.63;4414979;32;20097;-74
2021/06/28 02:44:40;;;;;;;11.12;4.60;;;;;;;24.78;41.49;100816.94;4410008;32;20068;-73
2021/06/28 02:47:08;;;;;;;5.53;4.03;;;;;;;24.78;41.11;100813.25;4410297;32;20133;-74
2021/06/28 02:49:34;;;;;;;8.00;4.20;;;;;;;24.80;41.32;100808.53;4411678;32;20566;-73
2021/06/28 02:52:00;;;;;;;8.07;4.37;;;;;;;24.40;41.70;100809.34;4410372;32;20042;-73
2021/06/28 02:54:25;;;;;;;10.65;4.57;;;;;;;24.71;41.11;100803.13;4414490;32;20053;-74
2021/06/28 02:56:51;;;;;;;8.65;4.32;;;;;;;24.72;41.15;100807.56;4408361;32;20430;-73
2021/06/28 02:59:17;;;;;;;8.13;4.37;;;;;;;24.82;40.86;100802.25;4410546;32;20461;-73
2021/06/28 03:01:43;;;;;;;6.50;3.65;;;;;;;24.87;40.81;100816.59;4408552;32;20100;-75
2021/06/28 03:04:09;;;;;;;5.65;3.30;;;;;;;24.76;40.78;100805.16;4409569;32;20096;-76
2021/06/28 03:06:35;;;;;;;6.53;3.40;;;;;;;24.64;40.64;100797.13;4412089;32;20038;-75
2021/06/28 03:09:00;;;;;;;7.05;2.85;;;;;;;24.50;40.91;100795.38;4413488;32;20026;-75
2021/06/28 03:11:26;;;;;;;5.60;3.20;;;;;;;24.48;40.80;100793.03;4411901;32;20019;-75
2021/06/28 03:13:52;;;;;;;5.22;3.15;;;;;;;24.52;40.94;100798.53;4411545;32;20034;-74
2021/06/28 03:16:18;;;;;;;7.53;3.47;;;;;;;24.46;41.03;100792.81;4410247;32;20103;-76
2021/06/28 03:18:44;;;;;;;8.43;3.33;;;;;;;24.22;41.43;100792.72;4407492;32;20125;-77
2021/06/28 03:21:11;;;;;;;5.18;3.08;;;;;;;24.53;40.82;100782.81;4413378;32;20042;-74
2021/06/28 03:23:40;;;;;;;6.35;3.53;;;;;;;24.41;40.68;100784.19;4413870;32;20086;-75
2021/06/28 03:26:06;;;;;;;8.73;3.12;;;;;;;24.27;41.37;100783.25;4409540;32;20046;-76
2021/06/28 03:28:33;;;;;;;9.68;3.87;;;;;;;24.35;41.22;100777.72;4411533;32;20106;-76
2021/06/28 03:30:59;;;;;;;6.72;3.47;;;;;;;24.37;41.08;100773.00;4411757;32;20060;-77
2021/06/28 03:33:24;;;;;;;6.32;3.75;;;;;;;24.51;41.05;100774.72;4411692;32;20065;-75
2021/06/28 03:35:51;;;;;;;7.22;3.70;;;;;;;24.56;41.05;100773.09;4411013;32;20041;-76
2021/06/28 03:38:17;;;;;;;5.97;3.67;;;;;;;24.42;41.36;100772.16;4412440;32;20072;-74
2021/06/28 03:40:43;;;;;;;5.87;4.05;;;;;;;24.32;41.58;100767.28;4409560;32;20046;-75
2021/06/28 03:43:10;;;;;;;7.20;4.53;;;;;;;24.26;41.52;100763.66;4413458;32;20124;-75
2021/06/28 03:45:37;;;;;;;7.57;4.35;;;;;;;24.12;41.76;100764.78;4410802;32;20489;-74
2021/06/28 03:48:04;;;;;;;5.50;4.15;;;;;;;23.86;42.23;100759.41;4411231;32;20180;-74
2021/06/28 03:50:30;;;;;;;7.80;4.68;;;;;;;24.22;41.61;100769.69;4412771;32;20159;-76
2021/06/28 03:52:57;;;;;;;9.32;4.90;;;;;;;24.19;41.64;100778.59;4412465;32;20073;-76
2021/06/28 03:55:24;;;;;;;8.70;4.85;;;;;;;24.25;41.53;100767.84;4409001;32;20037;-76
2021/06/28 03:57:50;;;;;;;8.38;5.22;;;;;;;24.36;41.24;100779.28;4411707;32;20069;-76
2021/06/28 04:00:18;;;;;;;9.68;5.40;;;;;;;24.45;41.08;100768.22;4408289;32;20054;-75
2021/06/28 04:02:44;;;;;;;11.00;6.47;;;;;;;24.46;41.39;100766.94;4412530;32;20074;-75
2021/06/28 04:05:14;;;;;;;13.02;6.75;;;;;;;24.22;41.63;100780.41;4412123;32;20049;-76
2021/06/28 04:07:40;;;;;;;16.45;7.85;;;;;;;24.52;41.08;100775.50;4408017;32;20056;-76
2021/06/28 04:10:06;;;;;;;14.23;7.97;;;;;;;24.24;41.70;100784.31;4414308;32;20038;-76
2021/06/28 04:12:32;;;;;;;13.27;7.60;;;;;;;24.50;41.54;100783.88;4411656;32;20433;-74
2021/06/28 04:14:58;;;;;;;13.80;8.32;;;;;;;24.58;41.33;100785.63;4410828;32;20109;-76
2021/06/28 04:17:25;;;;;;;15.77;8.05;;;;;;;24.42;41.46;100789.44;4409730;32;20374;-77
2021/06/28 04:19:51;;;;;;;14.18;8.52;;;;;;;23.98;42.13;100801.19;4411148;32;20033;-75
2021/06/28 04:22:17;;;;;;;13.95;8.38;;;;;;;24.29;41.41;100805.72;4411321;32;20056;-76
2021/06/28 04:24:43;;;;;;;16.40;8.38;;;;;;;24.46;41.17;100803.53;4411188;32;20472;-74
2021/06/28 04:27:09;;;;;;;15.02;8.05;;;;;;;24.31;41.48;100815.41;4410393;32;20066;-75
2021/06/28 04:29:35;;;;;;;11.10;7.37;;;;;;;24.30;41.23;100824.56;4411494;32;20158;-76
2021/06/28 04:32:04;;;;;;;14.02;7.82;;;;;;;24.37;40.91;100821.13;4409463;32;20030;-75
2021/06/28 04:34:32;;;;;;;11.02;6.50;;;;;;;24.69;40.60;100837.41;4410607;32;20121;-76
2021/06/28 04:36:57;;;;;;;11.75;7.25;;;;;;;24.43;40.97;100844.88;4411411;32;20038;-75
2021/06/28 04:39:23;;;;;;;13.98;7.95;;;;;;;24.39;40.92;100853.78;4409476;32;20477;-76
2021/06/28 04:41:49;;;;;;;9.85;6.65;;;;;;;24.38;40.89;100857.19;4410898;32;20511;-76
2021/06/28 04:44:15;;;;;;;7.82;4.97;;;;;;;24.37;40.88;100849.88;4411763;32;20440;-74
2021/06/28 04:46:41;;;;;;;10.32;4.70;;;;;;;24.30;41.24;100850.44;4410484;32;20029;-75
2021/06/28 04:49:07;;;;;;;7.12;4.25;;;;;;;24.16;41.25;100848.69;4406963;32;20379;-76
2021/06/28 04:51:33;;;;;;;6.20;4.03;;;;;;;24.06;41.37;100851.09;4408080;32;20149;-75
2021/06/28 04:53:59;;;;;;;7.40;3.20;;;;;;;24.09;41.51;100847.16;4410412;32;20081;-77
2021/06/28 04:56:25;;;;;;;7.87;3.67;;;;;;;24.09;41.65;100834.88;4412505;32;20088;-75
2021/06/28 04:58:51;;;;;;;7.65;3.47;;;;;;;24.05;41.60;100831.50;4410129;32;20438;-74
2021/06/28 05:01:17;;;;;;;6.65;3.90;;;;;;;23.81;42.03;100837.84;4409242;32;20113;-74
2021/06/28 05:03:43;;;;;;;7.68;3.55;;;;;;;23.94;41.84;100834.38;4410909;32;20453;-75
2021/06/28 05:06:09;;;;;;;6.28;3.72;;;;;;;24.01;41.78;100840.37;4410984;32;20469;-76
2021/06/28 05:08:35;;;;;;;5.68;4.43;;;;;;;24.12;41.65;100845.31;4410060;32;20389;-76
2021/06/28 05:11:00;;;;;;;9.23;4.60;;;;;;;24.19;41.29;100859.91;4411155;32;20014;-74
2021/06/28 05:13:26;;;;;;;7.47;5.07;;;;;;;24.39;41.00;100864.53;4409334;32;20370;-74
2021/06/28 05:15:52;;;;;;;7.68;4.80;;;;;;;24.38;41.28;100872.38;4409388;32;20576;-76
2021/06/28 05:18:18;;;;;;;8.70;5.45;;;;;;;24.44;41.00;100883.84;4411440;32;20419;-77
2021/06/28 05:20:43;;;;;;;10.05;6.45;;;;;;;24.47;40.87;100883.56;4412828;32;20397;-74
2021/06/28 05:23:09;;;;;;;11.80;6.72;;;;;;;24.59;40.76;100890.03;4407649;32;20504;-76
2021/06/28 05:25:35;;;;;;;6.97;5.30;;;;;;;24.63;40.57;100904.91;4411395;32;20508;-74
2021/06/28 05:28:01;;;;;;;9.20;5.72;;;;;;;24.54;40.74;100905.25;4410132;32;20030;-76
2021/06/28 05:30:27;;;;;;;10.65;4.97;;;;;;;24.71;40.41;100911.69;4408718;32;20342;-76
2021/06/28 05:32:53;;;;;;;7.05;4.53;;;;;;;24.75;40.34;100909.31;4407858;32;20169;-74
2021/06/28 05:35:19;;;;;;;7.30;3.78;;;;;;;24.45;40.77;100905.56;4412304;32;20494;-75
2021/06/28 05:37:44;;;;;;;6.03;4.10;;;;;;;24.40;41.16;100897.72;4410572;32;20349;-76
2021/06/28 05:40:11;;;;;;;4.50;3.20;;;;;;;24.49;41.03;100891.66;4409947;32;20064;-75
2021/06/28 05:42:39;;;;;;;7.10;3.30;;;;;;;24.71;40.62;100892.34;4409890;32;20431;-74
2021/06/28 05:45:06;;;;;;;6.87;3.70;;;;;;;24.62;40.53;100884.00;4410613;32;20048;-76
2021/06/28 05:47:33;;;;;;;4.07;3.15;;;;;;;24.93;40.47;100891.37;4407480;32;20034;-74
2021/06/28 05:49:59;;;;;;;4.45;2.87;;;;;;;24.75;40.53;100884.19;4407374;32;20073;-75
2021/06/28 05:52:24;;;;;;;3.85;2.40;;;;;;;24.62;40.81;100886.09;4411166;32;20042;-77
2021/06/28 05:54:51;;;;;;;9.25;3.00;;;;;;;24.75;40.41;100881.31;4413037;32;20456;-75
2021/06/28 05:57:19;;;;;;;5.50;2.45;;;;;;;24.93;40.34;100894.28;4405222;32;20074;-76
2021/06/28 05:59:45;;;;;;;5.65;2.65;;;;;;;25.06;40.09;100886.56;4407804;32;20066;-74
2021/06/28 06:02:12;;;;;;;5.55;2.83;;;;;;;25.09;39.80;100876.88;4412089;32;20097;-73
2021/06/28 06:04:38;;;;;;;5.87;3.03;;;;;;;24.68;40.60;100869.59;4408106;32;20046;-73
2021/06/28 06:07:03;;;;;;;6.05;3.10;;;;;;;24.67;40.27;100868.03;4411752;32;20056;-74
2021/06/28 06:09:29;;;;;;;4.18;2.92;;;;;;;24.71;40.31;100849.16;4410159;32;20105;-73
2021/06/28 06:11:55;;;;;;;6.85;3.08;;;;;;;24.92;40.19;100844.56;4409810;32;20050;-73
2021/06/28 06:14:21;;;;;;;7.37;3.58;;;;;;;24.96;39.79;100847.94;4410406;32;20120;-75
2021/06/28 06:16:46;;;;;;;11.65;4.18;;;;;;;24.86;39.65;100846.69;4410515;32;20082;-74
2021/06/28 06:19:12;;;;;;;5.80;4.00;;;;;;;24.83;39.83;100856.41;4412568;32;20123;-74
2021/06/28 06:21:38;;;;;;;6.70;4.30;;;;;;;25.03;39.47;100866.69;4411228;32;20196;-75
2021/06/28 06:24:05;;;;;;;7.25;3.50;;;;;;;25.03;39.58;100878.22;4411655;32;20512;-74
2021/06/28 06:26:31;;;;;;;8.32;4.18;;;;;;;25.17;39.33;100871.31;4413361;32;20099;-73
2021/06/28 06:28:56;;;;;;;15.57;7.97;;;;;;;25.20;39.25;100873.91;4416376;32;20026;-77
2021/06/28 06:31:22;;;;;;;16.20;10.23;;;;;;;25.12;39.21;100875.00;4411220;32;20050;-77
2021/06/28 06:33:48;;;;;;;17.02;10.13;;;;;;;25.15;39.08;100876.81;4406559;32;20146;-75
2021/06/28 06:36:14;;;;;;;16.42;9.68;;;;;;;24.97;39.38;100884.03;4405557;32;20111;-74
2021/06/28 06:38:40;;;;;;;18.87;12.37;;;;;;;25.26;39.07;100889.03;4405979;32;20370;-74
2021/06/28 06:41:05;;;;;;;19.75;13.57;;;;;;;25.17;39.19;100891.47;4400288;32;20034;-73
2021/06/28 06:43:31;;;;;;;21.02;11.93;;;;;;;25.29;39.12;100895.81;4411387;32;20211;-71
2021/06/28 06:45:57;;;;;;;21.15;11.93;;;;;;;25.43;38.97;100894.66;4401112;32;20074;-73
2021/06/28 06:48:23;;;;;;;17.48;11.05;;;;;;;25.48;38.94;100887.28;4405561;32;20109;-72
2021/06/28 06:50:49;;;;;;;17.58;9.90;;;;;;;25.01;39.63;100881.63;4399885;32;20483;-72
2021/06/28 06:53:15;;;;;;;20.77;11.32;;;;;;;25.47;38.81;100883.63;4402373;32;20324;-72
2021/06/28 06:56:10;;;;;;;20.00;11.80;;;;;;;25.49;38.95;100888.84;4403420;32;20133;-73
2021/06/28 06:58:36;;;;;;;16.87;11.12;;;;;;;25.98;38.12;100881.81;4404335;32;20069;-72
2021/06/28 07:01:05;;;;;;;23.92;12.80;;;;;;;25.61;38.58;100870.13;4404254;32;20112;-72
2021/06/28 07:03:30;;;;;;;19.02;11.88;;;;;;;25.81;38.24;100881.97;4400308;32;20151;-73
2021/06/28 07:05:57;;;;;;;21.27;12.50;;;;;;;25.73;38.27;100871.56;4398664;32;20085;-71
2021/06/28 07:08:23;;;;;;;21.62;14.13;;;;;;;25.16;39.29;100867.63;4399794;32;20349;-73
2021/06/28 07:10:49;;;;;;;26.45;13.93;;;;;;;25.60;38.65;100854.13;4399858;32;20120;-71
2021/06/28 07:13:15;;;;;;;25.00;14.30;;;;;;;25.54;38.54;100848.44;4402754;32;20686;-73
2021/06/28 07:15:41;;;;;;;22.65;13.25;;;;;;;25.62;38.38;100845.75;4404271;32;20077;-72
2021/06/28 07:18:07;;;;;;;20.77;13.18;;;;;;;25.32;38.96;100835.03;4398595;32;20073;-74
2021/06/28 07:20:33;;;;;;;19.65;12.00;;;;;;;25.90;37.90;100840.44;4401129;32;20090;-71
2021/06/28 07:23:00;;;;;;;19.23;12.30;;;;;;;25.73;38.37;100831.97;4402249;32;20103;-74
2021/06/28 07:25:26;;;;;;;21.98;12.65;;;;;;;26.14;37.67;100820.22;4402294;32;21162;-73
2021/06/28 07:27:52;;;;;;;17.83;11.73;;;;;;;26.56;37.09;100840.34;4403959;32;20068;-71
2021/06/28 07:30:21;;;;;;;14.93;10.32;;;;;;;27.04;36.23;100842.22;4401854;32;20140;-76
2021/06/28 07:32:50;;;;;;;18.52;11.45;;;;;;;26.72;36.57;100841.44;4400655;32;20170;-75
2021/06/28 07:35:17;;;;;;;18.70;10.23;;;;;;;26.91;36.37;100842.19;4401617;32;20145;-77
2021/06/28 07:37:43;;;;;;;14.60;10.25;;;;;;;26.97;36.12;100854.44;4404097;32;20042;-73
2021/06/28 07:40:13;;;;;;;16.77;10.30;;;;;;;26.72;36.33;100867.44;4403706;32;20127;-74
2021/06/28 07:42:39;;;;;;;17.00;9.38;;;;;;;27.39;35.60;100870.78;4405595;32;20038;-75
2021/06/28 07:45:07;;;;;;;18.75;10.57;;;;;;;26.78;36.49;100873.88;4403502;32;20080;-74
2021/06/28 07:47:34;;;;;;;13.93;9.02;;;;;;;26.64;37.01;100870.16;4403837;32;20080;-74
2021/06/28 07:50:00;;;;;;;13.40;7.78;;;;;;;26.85;36.55;100867.47;4402241;32;20501;-75
2021/06/28 07:52:28;;;;;;;15.80;8.52;;;;;;;26.63;36.63;100862.06;4406403;32;20129;-74
2021/06/28 07:54:53;;;;;;;13.55;7.65;;;;;;;26.83;36.44;100855.69;4403745;32;20086;-73
2021/06/28 07:57:19;;;;;;;11.77;7.35;;;;;;;26.59;36.78;100861.53;4405878;32;20092;-75
2021/06/28 07:59:45;;;;;;;11.43;6.45;;;;;;;26.78;36.32;100859.44;4404811;32;20073;-73
2021/06/28 08:02:10;;;;;;;10.25;5.32;;;;;;;26.85;36.24;100861.72;4403445;32;20077;-71
2021/06/28 08:04:36;;;;;;;9.90;6.15;;;;;;;27.01;36.09;100872.22;4400905;32;20081;-72
2021/06/28 08:07:02;;;;;;;9.27;5.30;;;;;;;27.20;35.68;100867.94;4401822;32;20074;-72
2021/06/28 08:09:28;;;;;;;10.43;5.72;;;;;;;26.63;36.50;100851.28;4404510;32;20064;-71
2021/06/28 08:11:58;;;;;;;9.77;5.70;;;;;;;27.16;35.99;100850.13;4406631;32;20451;-74
2021/06/28 08:14:24;;;;;;;10.32;5.65;;;;;;;27.55;35.44;100860.25;4394996;32;20066;-73
2021/06/28 08:16:51;;;;;;;8.77;5.60;;;;;;;27.64;34.98;100854.03;4394764;32;20105;-75
2021/06/28 08:19:17;;;;;;;10.85;5.78;;;;;;;27.50;35.40;100850.34;4391025;32;20030;-74
2021/06/28 08:21:43;;;;;;;7.05;4.60;;;;;;;27.75;34.92;100845.12;4401527;32;20167;-76
2021/06/28 08:24:10;;;;;;;4.90;3.78;;;;;;;27.77;34.99;100848.25;4401777;32;20074;-76
2021/06/28 08:26:37;;;;;;;7.30;4.28;;;;;;;27.80;34.72;100842.16;4398189;32;20054;-75
2021/06/28 08:29:05;;;;;;;7.60;3.83;;;;;;;27.55;35.08;100837.88;4402516;32;20046;-75
2021/06/28 08:31:33;;;;;;;11.88;3.92;;;;;;;27.86;34.84;100848.62;4399024;32;20038;-74
2021/06/28 08:33:59;;;;;;;7.18;3.22;;;;;;;28.00;34.59;100837.81;4399269;32;20096;-72
2021/06/28 08:36:24;;;;;;;8.80;3.37;;;;;;;26.89;36.08;100841.94;4402438;32;20046;-74
2021/06/28 08:38:50;;;;;;;6.62;3.35;;;;;;;27.24;35.78;100841.63;4404329;32;20116;-74
2021/06/28 08:41:17;;;;;;;5.82;2.97;;;;;;;27.82;34.84;100838.69;4404917;32;20380;-74
2021/06/28 08:43:45;;;;;;;4.30;2.75;;;;;;;28.16;34.16;100839.59;4404370;32;20102;-73
2021/06/28 08:46:13;;;;;;;12.37;2.97;;;;;;;28.45;33.79;100839.22;4405517;32;20110;-72
2021/06/28 08:48:41;;;;;;;6.20;2.90;;;;;;;28.60;33.44;100850.94;4401198;32;20460;-76
2021/06/28 08:51:08;;;;;;;4.87;3.05;;;;;;;28.62;33.11;100842.47;4401466;32;20072;-74
2021/06/28 08:53:34;;;;;;;6.87;3.10;;;;;;;28.46;33.67;100845.75;4402366;32;20041;-75
2021/06/28 08:56:06;;;;;;;6.03;2.53;;;;;;;28.88;32.77;100851.09;4401606;32;20108;-75
2021/06/28 08:58:34;;;;;;;8.63;3.05;;;;;;;28.72;33.19;100858.03;4402803;32;20100;-73
2021/06/28 09:01:00;;;;;;;3.85;2.58;;;;;;;28.48;33.36;100857.56;4401496;32;20163;-75
2021/06/28 09:03:26;;;;;;;3.28;2.50;;;;;;;28.47;33.12;100862.56;4402603;32;20405;-73
2021/06/28 09:06:10;;;;;;;7.55;2.30;;;;;;;28.62;33.23;100862.75;4399334;32;20034;-73
2021/06/28 09:08:38;;;;;;;4.85;2.47;;;;;;;28.83;33.02;100869.38;4402484;32;20101;-73
2021/06/28 09:11:15;;;;;;;7.75;2.65;;;;;;;28.48;33.41;100864.16;4401942;32;20096;-72
2021/06/28 09:13:44;;;;;;;6.68;4.37;;;;;;;28.65;33.07;100860.84;4401630;32;20426;-71
2021/06/28 09:16:30;;;;;;;4.60;2.65;;;;;;;28.57;33.09;100863.69;4395800;32;20419;-73
2021/06/28 09:24:36;;;;;;;3.80;2.42;;;;;;;28.67;32.55;100861.84;3975191;32;15033717;-72
2021/06/28 09:29:55;;;;;;;5.37;2.40;;;;;;;29.70;31.96;100864.78;3982030;31;15014889;-73
2021/06/28 09:32:23;;;;;;;6.82;2.50;;;;;;;29.70;31.96;100864.78;4437936;32;20574;-74
2021/06/28 09:34:53;;;;;;;8.48;2.83;;;;;;;29.33;32.11;100865.25;4435445;32;20076;-71
2021/06/28 09:37:24;;;;;;;7.12;2.62;;;;;;;29.58;31.41;100863.53;4433960;32;20126;-74
2021/06/28 09:39:52;;;;;;;4.45;3.20;;;;;;;29.54;31.77;100865.22;4425238;32;20115;-71
2021/06/28 09:42:21;;;;;;;4.12;2.60;;;;;;;29.14;32.37;100864.66;4427716;32;20355;-72
2021/06/28 09:47:27;;;;;;;5.68;2.28;;;;;;;29.36;31.70;100878.59;3969382;32;15033703;-74
2021/06/28 09:50:11;;;;;;;5.87;2.90;;;;;;;29.04;32.22;100875.22;4424341;32;20173;-76
2021/06/28 10:00:54;;;;;;;5.80;3.60;;;;;;;29.24;32.45;100868.66;3965335;32;15023134;-73
2021/06/28 10:08:45;;;;;;;9.88;4.50;;;;;;;28.75;33.25;100871.41;3978345;32;15027002;-74
2021/06/28 10:11:20;;;;;;;5.90;4.07;;;;;;;28.75;33.25;100871.41;4427780;32;20069;-75
2021/06/28 10:13:54;;;;;;;8.25;4.43;;;;;;;28.71;33.00;100870.19;4424556;32;20119;-73
2021/06/28 10:16:22;;;;;;;5.43;3.58;;;;;;;28.93;32.90;100870.44;4428542;32;20084;-75
2021/06/28 10:18:49;;;;;;;8.15;3.60;;;;;;;28.97;32.73;100870.84;4430371;32;20050;-75
2021/06/28 10:21:15;;;;;;;6.75;3.58;;;;;;;28.88;32.99;100877.16;4430633;32;20084;-75
2021/06/28 10:23:41;;;;;;;6.43;3.85;;;;;;;28.88;32.73;100871.37;4430864;32;20529;-74
2021/06/28 10:26:07;;;;;;;7.82;4.10;;;;;;;29.08;32.31;100874.88;4428023;32;20033;-73
2021/06/28 10:28:35;;;;;;;7.68;3.35;;;;;;;29.07;32.44;100870.41;4426491;32;20060;-75
2021/06/28 10:31:02;;;;;;;7.18;3.85;;;;;;;29.25;32.18;100875.22;4428596;32;20159;-73
2021/06/28 10:33:28;;;;;;;9.57;3.92;;;;;;;29.18;32.04;100875.94;4427415;32;20053;-73
2021/06/28 10:36:02;;;;;;;7.00;3.62;;;;;;;28.72;32.76;100871.75;4429751;32;20196;-74
2021/06/28 10:38:49;;;;;;;10.43;3.30;;;;;;;29.23;32.03;100881.56;4430790;32;21158;-73
2021/06/28 10:41:40;;;;;;;6.20;2.85;;;;;;;29.09;32.23;100896.69;4426593;32;20102;-74
2021/06/28 10:44:10;;;;;;;8.00;3.70;;;;;;;29.26;32.28;100882.56;4431006;32;20081;-73
2021/06/28 10:46:39;;;;;;;7.97;3.25;;;;;;;28.85;32.78;100895.66;4428019;32;20108;-73
2021/06/28 10:49:06;;;;;;;5.68;3.20;;;;;;;28.89;32.66;100889.50;4427069;32;20093;-73
2021/06/28 10:54:19;;;;;;;10.70;3.28;;;;;;;29.34;32.55;100890.00;3975901;32;15023711;-75
2021/06/28 10:59:25;;;;;;;7.95;2.92;;;;;;;29.44;32.14;100875.75;3972692;32;15035894;-72
2021/06/28 11:04:41;;;;;;;4.87;2.78;;;;;;;29.83;31.56;100875.50;3976410;32;15022159;-74
2021/06/28 11:07:11;;;;;;;5.45;2.70;;;;;;;29.83;31.56;100875.50;4427024;32;20154;-74
2021/06/28 11:12:28;;;;;;;4.85;2.50;;;;;;;30.60;30.41;100879.81;3972528;32;15031573;-74
2021/06/28 11:14:58;;;;;;;7.22;2.92;;;;;;;30.60;30.41;100879.81;4422946;32;20116;-74
2021/06/28 11:20:40;;;;;;;4.87;2.45;;;;;;;31.08;29.96;100871.44;3948058;32;15723646;-74
2021/06/28 11:23:16;;;;;;;3.17;2.15;;;;;;;31.08;29.96;100871.44;4426161;32;20041;-77
2021/06/28 11:25:52;;;;;;;6.55;3.08;;;;;;;30.77;29.79;100864.78;4425214;32;20156;-77
2021/06/28 11:30:59;;;;;;;6.55;2.92;;;;;;;31.13;29.71;100859.59;3978263;32;15023454;-77
2021/06/28 11:39:03;;;;;;;5.65;2.67;;;;;;;30.59;30.58;100868.78;3978446;32;15022802;-75
2021/06/28 11:41:30;;;;;;;6.68;3.40;;;;;;;30.59;30.58;100868.78;4436216;32;20156;-74
2021/06/28 11:43:59;;;;;;;7.80;3.33;;;;;;;30.25;30.89;100869.00;4435129;32;20073;-73
2021/06/28 11:49:09;;;;;;;5.65;3.40;;;;;;;30.76;30.58;100875.62;3974265;32;15026796;-73
2021/06/28 11:51:39;;;;;;;8.88;3.47;;;;;;;30.76;30.58;100875.62;4432387;32;20081;-75
2021/06/28 11:56:46;;;;;;;6.93;2.85;;;;;;;31.25;29.70;100860.00;3978909;32;15026614;-76
2021/06/28 11:59:15;;;;;;;5.30;2.90;;;;;;;31.25;29.70;100860.00;4431481;32;20088;-77
2021/06/28 12:01:43;;;;;;;6.87;2.92;;;;;;;30.53;30.63;100860.22;4425724;32;20049;-79
2021/06/28 12:04:19;;;;;;;7.28;2.60;;;;;;;30.66;30.54;100857.19;4415206;32;20168;-78
2021/06/28 12:06:46;;;;;;;5.78;3.40;;;;;;;31.25;29.57;100863.69;4416046;32;20450;-77
2021/06/28 12:17:30;;;;;;;5.00;2.28;;;;;;;31.22;29.62;100864.84;3961821;32;15023398;-75
2021/06/28 12:22:37;;;;;;;8.90;2.92;;;;;;;32.05;28.17;100859.78;3948634;32;15722418;-73
2021/06/28 12:27:44;;;;;;;3.90;2.50;;;;;;;32.41;27.45;100866.09;3977068;32;15023801;-73
2021/06/28 12:30:17;;;;;;;4.82;2.67;;;;;;;32.41;27.45;100866.09;4430814;32;20160;-71